Home   Weather   Germany   Stuhr   Past weeks
Flag for Germany

Past Weather in Stuhr, Lower Saxony, Germany — Yesterday and Last 2 Weeks

Currently: 41 °F. Passing clouds. (Weather station: Bremen Airport, Germany). See more current weather

Past Weather in Stuhr — Graph

°F

Stuhr Temperature Yesterday

Maximum temperature yesterday: 41 °F (at 11:50 am)
Minimum temperature yesterday: 28 °F (at 12:50 am)
Average temperature yesterday: 36 °F

High & Low Weather Summary for the Past Weeks

 TemperatureHumidityPressure
High64 °F (Feb 22, 1:20 pm)100% (Feb 27, 8:20 am)30.72 "Hg (Feb 27, 8:20 am)
Low27 °F (Mar 5, 10:50 pm)36% (Mar 8, 1:20 pm)29.95 "Hg (Feb 21, 2:50 pm)
Average43 °F79%30.37 "Hg
* Reported Feb 21 1:20 pm — Mar 8 1:20 pm, Stuhr. Weather by CustomWeather, © 2021

Note: Actual official high and low records may vary slightly from our data, if they occured in-between our weather recording intervals... More about our weather records

Stuhr Weather History for the Previous 24 Hours

Scroll right to see more
 ConditionsComfort  
Time TempWeatherWind HumidityBarometerVisibility
1:20 pm
Mon, Mar 8
43 °FPassing clouds.7 mph36%30.21 "HgN/A
12:50 pm41 °FPassing clouds.9 mph39%30.21 "HgN/A
12:20 pm41 °FPassing clouds.6 mph45%30.24 "HgN/A
11:50 am41 °FPassing clouds.6 mph53%30.24 "HgN/A
11:20 am39 °FPassing clouds.6 mph56%30.24 "HgN/A
10:50 am37 °FPassing clouds.5 mph60%30.24 "HgN/A
10:20 am37 °FPassing clouds.5 mph70%30.24 "HgN/A
9:50 am36 °FPassing clouds.5 mph70%30.24 "HgN/A
9:20 am34 °FSunny.6 mph75%30.24 "Hg10 mi
8:50 am34 °FSunny.3 mph81%30.24 "Hg10 mi
8:20 am32 °FSunny.2 mph87%30.21 "Hg10 mi
7:50 am28 °FSunny.3 mph93%30.21 "Hg10 mi
7:20 am27 °FSunny.2 mph93%30.21 "Hg10 mi
6:50 am28 °FLight fog.3 mph93%30.21 "HgN/A
6:20 am28 °FClear.1 mph100%30.18 "Hg10 mi
5:50 am30 °FClear.3 mph93%30.18 "Hg10 mi
5:20 am30 °FPassing clouds.5 mph86%30.18 "HgN/A
4:50 am30 °FPassing clouds.5 mph86%30.15 "HgN/A
4:20 am30 °FPassing clouds.5 mph93%30.15 "HgN/A
3:50 am28 °FPassing clouds.3 mph100%30.15 "HgN/A
3:20 am30 °FPassing clouds.5 mph100%30.15 "HgN/A
2:50 am30 °FLight fog.3 mph100%30.15 "HgN/A
2:20 am30 °FClear.5 mph100%30.15 "Hg10 mi
1:50 am34 °FClear.3 mph93%30.15 "Hg10 mi
1:20 am34 °FClear.6 mph93%30.15 "Hg10 mi
12:50 am34 °FPassing clouds.5 mph93%30.15 "HgN/A
12:20 am36 °FPassing clouds.6 mph93%30.15 "HgN/A
11:50 pm
Sun, Mar 7
36 °FPassing clouds.6 mph93%30.15 "HgN/A
11:20 pm37 °FPartly cloudy.9 mph87%30.15 "Hg5 mi
10:50 pm37 °FLight rain. Passing clouds.12 mph93%30.15 "Hg4 mi
10:20 pm39 °FPassing clouds.10 mph93%30.15 "Hg4 mi
9:50 pm39 °FPassing clouds.12 mph93%30.12 "HgN/A
9:20 pm39 °FPassing clouds.12 mph87%30.12 "HgN/A
8:50 pm39 °FPassing clouds.13 mph87%30.12 "HgN/A
8:20 pm39 °FPassing clouds.12 mph81%30.12 "HgN/A
7:50 pm39 °FPassing clouds.12 mph81%30.15 "HgN/A
7:20 pm39 °FPassing clouds.10 mph81%30.15 "HgN/A
6:50 pm39 °FPassing clouds.10 mph81%30.15 "HgN/A
6:20 pm39 °FPassing clouds.12 mph75%30.12 "HgN/A
5:50 pm39 °FScattered clouds.12 mph75%30.12 "HgN/A
5:20 pm39 °FPassing clouds.13 mph75%30.15 "HgN/A
4:50 pm41 °FScattered clouds.14 mph70%30.15 "HgN/A
4:20 pm41 °FPartly sunny.13 mph70%30.15 "HgN/A
3:50 pm41 °FOvercast.14 mph70%30.15 "HgN/A
3:20 pm39 °FOvercast.15 mph70%30.18 "HgN/A
2:50 pm39 °FPartly sunny.15 mph70%30.18 "HgN/A
2:20 pm41 °FPartly sunny.13 mph66%30.18 "HgN/A
Weather by CustomWeather, © 2021

See weather overview